createdAt,value
2023-01-26T08:15:41.790Z,25.37
2023-01-26T08:20:41.427Z,26.11
2023-01-26T08:28:40.837Z,28.51
2023-01-26T08:29:40.776Z,29.02
2023-01-26T08:30:40.737Z,29.48
2023-01-26T08:31:40.703Z,30.02
2023-01-26T08:32:40.457Z,30.57
2023-01-26T08:33:40.374Z,31.06
2023-01-26T08:34:40.269Z,31.44
2023-01-26T08:35:40.204Z,31.53
2023-01-26T08:36:40.064Z,31.70
2023-01-26T08:37:39.970Z,31.89
2023-01-26T08:38:39.863Z,32.08
2023-01-26T08:39:39.778Z,32.23
2023-01-26T08:40:39.678Z,32.36
2023-01-26T08:41:39.563Z,32.36
2023-01-26T10:44:32.334Z,24.35
2023-01-26T10:46:32.368Z,24.48
2023-01-26T10:48:32.163Z,24.55
2023-01-26T10:49:32.078Z,24.58
2023-01-26T10:50:32.009Z,24.63
2023-01-26T10:51:31.979Z,24.68
2023-01-26T10:53:31.904Z,24.76
2023-01-26T10:55:31.774Z,24.85
2023-01-26T10:56:31.763Z,24.89
2023-01-26T10:57:31.653Z,24.92
2023-01-26T10:58:34.030Z,24.93
2023-01-26T10:59:31.592Z,24.96
2023-01-26T11:00:31.544Z,24.99
2023-01-26T11:01:31.565Z,25.01
2023-01-26T11:02:31.507Z,24.97
2023-01-26T11:03:31.401Z,24.92
2023-01-26T11:04:31.324Z,24.88
2023-01-26T11:05:31.294Z,24.86
2023-01-26T11:06:31.203Z,24.77
2023-01-26T11:07:31.147Z,24.69
2023-01-26T11:08:31.181Z,24.63
2023-01-26T11:09:31.079Z,24.59
2023-01-26T11:10:31.044Z,24.56
2023-01-26T11:24:30.292Z,23.94
2023-01-26T11:25:30.263Z,23.97
2023-01-26T11:26:30.251Z,24.04
2023-01-26T11:27:30.174Z,24.12
2023-01-26T11:28:30.189Z,24.20
2023-01-26T11:29:30.095Z,24.28
2023-01-26T11:30:30.105Z,24.35
2023-01-26T11:31:30.036Z,24.42
2023-01-26T11:32:29.960Z,24.48
2023-01-26T11:33:29.890Z,24.56
2023-01-26T11:34:29.842Z,24.62
2023-01-26T11:35:29.851Z,24.68
2023-01-26T11:36:29.727Z,24.70
2023-01-26T11:37:29.718Z,24.74
2023-01-26T11:38:29.678Z,24.76
2023-01-26T11:39:29.606Z,24.82
2023-01-26T11:40:29.548Z,24.89
2023-01-26T11:41:29.477Z,24.88
2023-01-26T13:43:27.059Z,25.95
2023-01-26T13:44:22.475Z,25.99
2023-01-26T13:45:22.428Z,26.01
2023-01-26T13:46:22.409Z,26.01
2023-01-26T13:47:22.298Z,26.01
2023-01-26T13:48:22.262Z,26.01
2023-01-26T13:49:22.168Z,26.02
2023-01-26T13:50:22.114Z,26.02
2023-01-26T13:51:22.042Z,26.01
2023-01-26T13:52:21.964Z,26.01
2023-01-26T13:53:21.946Z,26.00
2023-01-26T13:54:21.853Z,26.00
2023-01-26T13:55:21.771Z,26.00
2023-01-26T13:56:21.730Z,26.00
2023-01-26T13:57:21.687Z,25.98
2023-01-26T13:58:21.645Z,25.96
2023-01-26T13:59:21.511Z,25.98
2023-01-26T14:00:21.459Z,26.01
2023-01-26T14:01:21.458Z,26.04
2023-01-26T14:02:21.369Z,26.06
2023-01-26T14:03:21.307Z,26.08
2023-01-26T14:04:21.685Z,26.08
2023-01-26T14:05:21.146Z,26.09
2023-01-26T14:06:21.111Z,26.10
2023-01-26T14:07:21.048Z,26.10
2023-01-26T14:08:20.961Z,26.10
2023-01-26T14:09:20.867Z,26.10
2023-01-26T14:10:20.820Z,26.11
2023-01-26T14:11:20.773Z,26.10
2023-01-26T14:12:20.662Z,26.09
2023-01-26T14:13:20.660Z,26.10
2023-01-26T14:14:20.537Z,26.09
2023-01-26T14:15:20.467Z,26.08
2023-01-26T14:16:20.481Z,26.04
2023-01-26T14:17:20.351Z,26.01
2023-01-26T14:18:20.284Z,26.00
2023-01-26T14:19:20.225Z,25.98
2023-01-26T14:20:20.145Z,25.95
2023-01-26T14:21:20.080Z,25.92
2023-01-26T14:22:22.196Z,25.89
2023-01-26T14:23:19.939Z,25.87
2023-01-26T14:24:19.948Z,25.85
2023-01-26T14:25:19.836Z,25.82
2023-01-26T14:26:19.779Z,25.81
2023-01-26T14:27:19.714Z,25.79
2023-01-26T14:28:19.633Z,25.77
2023-01-26T14:29:19.585Z,25.74
2023-01-26T14:30:19.534Z,25.73
2023-01-26T16:04:38.476Z,24.53
2023-01-26T16:23:38.252Z,24.51
2023-01-26T16:25:38.156Z,24.48
2023-01-26T16:26:38.174Z,24.48
2023-01-26T16:27:39.152Z,24.47
2023-01-26T16:29:38.014Z,24.45
2023-01-26T16:30:38.066Z,24.45
2023-01-26T16:31:38.651Z,24.45
2023-01-26T16:32:39.623Z,24.44
2023-01-26T16:33:40.500Z,24.44
2023-01-26T16:35:38.244Z,24.43
2023-01-26T16:36:38.639Z,24.42
2023-01-26T16:37:38.672Z,24.41
2023-01-26T16:38:38.285Z,24.41
2023-01-26T16:39:38.097Z,24.40
2023-01-26T16:40:38.030Z,24.40
2023-01-26T16:41:38.532Z,24.40
2023-01-26T17:35:37.112Z,24.11
2023-01-26T17:36:37.086Z,24.10
2023-01-26T17:37:37.059Z,24.10
2023-01-26T17:38:37.041Z,24.10
2023-01-26T17:39:37.056Z,24.10
2023-01-26T17:40:37.013Z,24.09
2023-01-26T17:41:37.005Z,24.08
2023-01-26T17:42:37.015Z,24.08
2023-01-26T17:43:36.988Z,24.07
2023-01-26T17:44:36.962Z,24.07
2023-01-26T17:45:37.022Z,24.06
2023-01-26T17:46:36.959Z,24.06
2023-01-26T17:47:36.927Z,24.05
2023-01-26T17:48:36.927Z,24.05
2023-01-26T17:49:36.935Z,24.05
2023-01-26T17:50:36.915Z,24.04
2023-01-26T17:51:36.883Z,24.04
2023-01-26T17:52:36.835Z,24.04
2023-01-26T17:53:36.840Z,24.03
2023-01-26T17:54:36.835Z,24.03
2023-01-26T17:55:36.786Z,24.02
2023-01-26T17:56:36.794Z,24.03
2023-01-26T17:57:36.777Z,24.01
2023-01-26T17:58:36.746Z,24.01
2023-01-26T17:59:36.769Z,24.01
2023-01-26T18:00:36.723Z,24.00
2023-01-26T18:01:36.716Z,24.00
2023-01-26T18:02:36.770Z,24.00
2023-01-26T18:03:36.680Z,23.99
2023-01-26T18:04:36.696Z,23.98
2023-01-26T18:05:36.682Z,23.98
2023-01-26T18:06:36.639Z,23.98
2023-01-26T18:07:36.619Z,23.98
2023-01-26T20:28:34.779Z,23.56
2023-01-26T20:29:35.011Z,23.56
2023-01-26T20:30:34.770Z,23.56
2023-01-26T20:31:34.812Z,23.55
2023-01-26T20:32:34.729Z,23.56
2023-01-26T20:33:34.749Z,23.56
2023-01-26T20:34:34.705Z,23.55
2023-01-26T20:35:34.696Z,23.55
2023-01-26T20:36:34.700Z,23.55
2023-01-26T20:37:34.685Z,23.55
2023-01-26T20:38:34.667Z,23.55
2023-01-26T20:39:34.663Z,23.54
2023-01-26T20:40:34.632Z,23.55
2023-01-26T20:41:34.624Z,23.53
2023-01-26T20:42:34.588Z,23.54
2023-01-26T20:43:34.582Z,23.53
2023-01-26T20:44:34.620Z,23.54
2023-01-26T20:45:34.578Z,23.54
2023-01-26T20:46:34.570Z,23.53
2023-01-26T20:47:34.539Z,23.53
2023-01-26T20:48:34.543Z,23.53
2023-01-26T20:49:34.535Z,23.53
2023-01-26T20:50:34.504Z,23.52
2023-01-26T20:51:34.518Z,23.52
2023-01-26T20:52:34.476Z,23.51
2023-01-26T20:53:34.477Z,23.50
2023-01-26T20:54:34.450Z,23.50
2023-01-26T20:55:34.458Z,23.51
2023-01-26T20:56:34.439Z,23.50
2023-01-26T20:57:34.450Z,23.51
2023-01-26T20:58:34.433Z,23.50
2023-01-26T20:59:34.410Z,23.50
2023-01-26T21:00:34.397Z,23.49
2023-01-26T21:01:34.393Z,23.49
2023-01-26T21:02:34.376Z,23.49
2023-01-26T21:03:34.376Z,23.49
2023-01-26T21:04:34.364Z,23.49
2023-01-26T21:05:34.357Z,23.49
2023-01-26T21:06:34.316Z,23.49
2023-01-26T21:07:34.323Z,23.49
2023-01-26T21:08:34.371Z,23.49
2023-01-26T21:09:34.286Z,23.48
2023-01-26T21:10:34.262Z,23.48
2023-01-26T21:11:34.249Z,23.48
2023-01-26T21:12:34.259Z,23.48
2023-01-26T21:13:34.220Z,23.48
2023-01-26T21:14:34.178Z,23.48
2023-01-26T21:15:34.176Z,23.47
2023-01-26T21:16:34.190Z,23.47
2023-01-26T21:17:34.165Z,23.47
2023-01-26T21:18:34.148Z,23.47
2023-01-26T21:19:34.122Z,23.47
2023-01-26T21:20:34.105Z,23.47
2023-01-26T21:21:34.094Z,23.46
2023-01-26T21:22:34.066Z,23.47
2023-01-26T21:23:34.034Z,23.46
2023-01-26T21:24:34.027Z,23.47
2023-01-26T21:25:34.034Z,23.46
2023-01-26T21:26:33.964Z,23.46
2023-01-26T21:27:33.971Z,23.46
2023-01-26T21:28:33.950Z,23.45
2023-01-26T21:29:33.929Z,23.46
2023-01-26T21:30:33.939Z,23.46
2023-01-26T21:31:34.054Z,23.45
2023-01-26T21:32:33.904Z,23.45
2023-01-26T21:33:33.862Z,23.44
2023-01-26T21:34:33.845Z,23.43
2023-01-26T21:35:33.822Z,23.43
2023-01-26T21:36:33.821Z,23.43
2023-01-26T21:37:33.841Z,23.43
2023-01-26T21:38:33.798Z,23.43
2023-01-26T21:39:33.771Z,23.42
2023-01-26T21:40:33.772Z,23.41
2023-01-26T21:41:33.730Z,23.43
2023-01-26T21:42:33.707Z,23.42
2023-01-26T21:43:33.710Z,23.41
2023-01-26T21:44:33.693Z,23.41
2023-01-26T21:49:33.611Z,23.41
2023-01-26T21:50:33.610Z,23.41
2023-01-26T21:51:33.582Z,23.41
2023-01-26T21:52:33.581Z,23.41
2023-01-26T21:53:33.594Z,23.41
